AIRPORT METAR

METAR FOR LIPX
ADDS - METARS form results

(1527 UTC 14 October 2019)
Data provider http://aviationweather.gov/metar/data/
 
METAR text: LIPX 141520Z 17003KT 130V200 4000 BR NSC 21/14 Q1020
Conditions at: LIPX (VILLAFRANCA(CV/M, IT) observed 1520 UTC 14 October 2019
Temperature: 21.0°C (70°F)
Dewpoint: 14.0°C (57°F) [RH = 64%]
Pressure (altimeter): 30.12 inches Hg (1020.0 mb)
Winds: from the S (170 degrees) at 3 MPH (3 knots; 1.5 m/s)
Visibility: 2.49 miles (4.01 km)
Ceiling: at least 12,000 feet AGL
Clouds: sky clear below 12,000 feet AGL
Weather: BR  (mist)

METAR text: LIPX 141450Z VRB02KT 4000 BR NSC 20/14 Q1020
Conditions at: LIPX (VILLAFRANCA(CV/M, IT) observed 1450 UTC 14 October 2019
Temperature: 20.0°C (68°F)
Dewpoint: 14.0°C (57°F) [RH = 68%]
Pressure (altimeter): 30.12 inches Hg (1020.0 mb)
Winds: variable direction winds at 2 MPH (2 knots; 1.0 m/s)
Visibility: 2.49 miles (4.01 km)
Ceiling: at least 12,000 feet AGL
Clouds: sky clear below 12,000 feet AGL
Weather: BR  (mist)

Forecast for: LIPX (VILLAFRANCA(CV/M, IT)
Text: TAF LIPX 141400Z 1415/1424 VRB05KT 5000 BR SCT050
Forecast period: 1500 UTC 14 October 2019 to 0000 UTC 15 October 2019
Forecast type: FROM: standard forecast or significant change
Winds: variable direction winds at 6 MPH (5 knots; 2.6 m/s)
Visibility: 3 miles (5 km)
Ceiling: at least 12,000 feet AGL
Clouds: scattered clouds at 5000 feet AGL
Weather: BR  (mist)

AIRPORT MAP

 RUNWAY INFORMATION
Runway 04 Runway length 10064 ft Runway width 148 ft
Runway elevation 220 ft Runway displaced threshold 189 ft Runway heading 46
Runway 22 Runway length 10064 ft Runway width 148 ft
Runway elevation 238 ft Runway displaced threshold 1345 ft Runway heading 226

 AIRPORT FREQUENCIES
Type APP Name GARDA APP Frequency 36.23 MHZ
Type APP Name GARDA APP Frequency 124.45 MHZ
Type GND Name GND Frequency 121.75 MHZ
Type INFO Name PADOVA INF Frequency 123.25 MHZ
Type TWR Name TWR Frequency 118.65 MHZ

 AIRPORT NEAR NAVIGATION AIDS
Type VORTAC Name Villafranca Frequency 115800 KHZ
Type NDB Name Villafranca Frequency 355 KHZ



© 2017 - Royal Sky Service, All Right Reserved. | Design & Developed by Davide Torresan